createdAt,value
2023-04-17T00:01:28.283Z,16.47
2023-04-17T00:03:57.592Z,17.00
2023-04-17T00:06:24.711Z,16.00
2023-04-17T00:08:51.494Z,16.17
2023-04-17T00:11:18.854Z,16.63
2023-04-17T00:13:45.863Z,17.30
2023-04-17T00:16:13.814Z,16.37
2023-04-17T00:18:41.467Z,15.80
2023-04-17T00:21:08.370Z,16.63
2023-04-17T00:23:35.375Z,16.47
2023-04-17T00:26:02.192Z,16.47
2023-04-17T00:28:29.010Z,15.90
2023-04-17T00:30:56.097Z,15.57
2023-04-17T00:33:22.910Z,16.77
2023-04-17T00:35:49.757Z,16.47
2023-04-17T00:38:16.513Z,17.37
2023-04-17T00:40:45.272Z,16.47
2023-04-17T00:43:12.106Z,16.83
2023-04-17T00:45:39.667Z,17.90
2023-04-17T00:48:08.158Z,17.47
2023-04-17T00:50:35.891Z,14.20
2023-04-17T00:53:03.308Z,17.30
2023-04-17T00:55:31.406Z,14.93
2023-04-17T00:57:58.866Z,16.60
2023-04-17T01:00:25.697Z,15.90
2023-04-17T01:02:52.810Z,17.03
2023-04-17T01:05:19.649Z,18.87
2023-04-17T01:07:46.497Z,15.67
2023-04-17T01:10:13.324Z,15.90
2023-04-17T01:12:41.333Z,15.70
2023-04-17T01:15:08.337Z,15.47
2023-04-17T01:17:35.249Z,16.33
2023-04-17T01:20:05.431Z,17.90
2023-04-17T01:22:32.209Z,16.70
2023-04-17T01:24:59.078Z,17.17
2023-04-17T01:27:25.870Z,15.77
2023-04-17T01:29:52.685Z,16.10
2023-04-17T01:32:19.387Z,16.43
2023-04-17T01:34:46.136Z,17.47
2023-04-17T01:37:12.905Z,16.30
2023-04-17T01:39:39.663Z,15.50
2023-04-17T01:42:06.688Z,15.23
2023-04-17T01:44:33.582Z,15.33
2023-04-17T01:47:00.295Z,17.70
2023-04-17T01:49:27.215Z,17.10
2023-04-17T01:51:53.978Z,15.23
2023-04-17T01:54:21.277Z,17.57
2023-04-17T01:56:48.164Z,15.73
2023-04-17T01:59:14.864Z,17.10
2023-04-17T02:01:41.864Z,16.20
2023-04-17T02:04:08.837Z,17.17
2023-04-17T02:06:35.960Z,17.03
2023-04-17T02:09:03.070Z,16.70
2023-04-17T02:11:29.878Z,16.30
2023-04-17T02:13:56.556Z,15.97
2023-04-17T02:16:23.366Z,15.90
2023-04-17T02:18:50.952Z,17.77
2023-04-17T02:21:17.805Z,16.93
2023-04-17T02:23:44.615Z,16.97
2023-04-17T02:26:11.393Z,17.03
2023-04-17T02:28:38.231Z,19.00
2023-04-17T02:31:09.031Z,17.27
2023-04-17T02:33:36.861Z,18.80
2023-04-17T02:36:04.952Z,16.50
2023-04-17T02:38:31.940Z,16.40
2023-04-17T02:40:59.293Z,17.23
2023-04-17T02:43:26.028Z,19.17
2023-04-17T02:45:52.855Z,17.23
2023-04-17T02:48:19.628Z,17.20
2023-04-17T02:50:46.399Z,18.77
2023-04-17T02:53:13.220Z,17.77
2023-04-17T02:55:40.038Z,19.37
2023-04-17T02:58:06.777Z,18.90
2023-04-17T03:00:33.638Z,18.13
2023-04-17T03:03:01.109Z,17.20
2023-04-17T03:05:30.370Z,18.93
2023-04-17T03:07:59.141Z,19.70
2023-04-17T03:10:25.973Z,20.17
2023-04-17T03:12:53.416Z,18.57
2023-04-17T03:15:20.335Z,17.27
2023-04-17T03:17:47.393Z,18.17
2023-04-17T03:20:16.077Z,18.00
2023-04-17T03:22:42.943Z,17.97
2023-04-17T03:25:10.442Z,17.27
2023-04-17T03:27:38.662Z,18.27
2023-04-17T03:30:06.427Z,18.90
2023-04-17T03:32:33.311Z,17.93
2023-04-17T03:35:00.241Z,17.80
2023-04-17T03:37:27.015Z,18.50
2023-04-17T03:39:55.612Z,18.50
2023-04-17T03:42:22.325Z,19.17
2023-04-17T03:44:48.995Z,18.63
2023-04-17T03:47:15.737Z,18.70
2023-04-17T03:49:42.472Z,18.07
2023-04-17T03:52:09.204Z,18.73
2023-04-17T03:54:36.016Z,19.30
2023-04-17T03:57:03.745Z,19.83
2023-04-17T03:59:31.717Z,16.90
2023-04-17T04:01:58.642Z,17.87
2023-04-17T04:04:26.070Z,18.90
2023-04-17T04:06:54.501Z,19.70
2023-04-17T04:09:21.625Z,19.57
2023-04-17T04:11:48.616Z,20.23
2023-04-17T04:14:15.408Z,19.40
2023-04-17T04:16:42.445Z,18.10
2023-04-17T04:19:09.394Z,19.43
2023-04-17T04:21:36.252Z,16.50
2023-04-17T04:24:03.207Z,20.23
2023-04-17T04:26:29.966Z,20.23
2023-04-17T04:28:56.828Z,18.90
2023-04-17T04:31:25.605Z,19.03
2023-04-17T04:33:55.246Z,22.40
2023-04-17T04:36:22.976Z,17.37
2023-04-17T04:38:50.519Z,19.40
2023-04-17T04:41:17.794Z,18.67
2023-04-17T04:43:44.613Z,20.60
2023-04-17T04:46:11.686Z,20.33
2023-04-17T04:48:40.607Z,19.17
2023-04-17T04:51:09.204Z,18.50
2023-04-17T04:53:36.136Z,20.87
2023-04-17T04:56:03.031Z,19.70
2023-04-17T04:58:29.835Z,19.83
2023-04-17T05:00:56.668Z,20.50
2023-04-17T05:03:23.918Z,19.30
2023-04-17T05:05:50.732Z,18.43
2023-04-17T05:08:17.620Z,18.03
2023-04-17T05:10:46.038Z,19.37
2023-04-17T05:13:12.853Z,18.17
2023-04-17T05:15:41.316Z,19.17
2023-04-17T05:18:08.161Z,17.90
2023-04-17T05:20:34.929Z,18.83
2023-04-17T05:23:01.778Z,18.67
2023-04-17T05:25:28.473Z,20.27
2023-04-17T05:27:55.311Z,19.17
2023-04-17T05:30:22.129Z,18.70
2023-04-17T05:32:48.916Z,19.47
2023-04-17T05:35:15.806Z,19.70
2023-04-17T05:37:42.540Z,19.13
2023-04-17T05:40:09.706Z,18.13
2023-04-17T05:42:36.573Z,19.30
2023-04-17T05:45:03.623Z,19.27
2023-04-17T05:47:30.554Z,18.50
2023-04-17T05:49:58.507Z,21.07
2023-04-17T05:52:25.717Z,19.80
2023-04-17T05:54:52.513Z,20.03
2023-04-17T05:57:19.891Z,18.57
2023-04-17T05:59:47.061Z,19.30
2023-04-17T06:02:13.885Z,24.90
2023-04-17T06:04:41.552Z,18.83
2023-04-17T06:07:09.808Z,18.40
2023-04-17T06:09:37.061Z,19.33
2023-04-17T06:12:04.546Z,18.13
2023-04-17T06:14:31.562Z,19.03
2023-04-17T06:16:58.377Z,18.73
2023-04-17T06:19:25.312Z,16.87
2023-04-17T06:21:52.073Z,19.40
2023-04-17T06:24:19.016Z,19.23
2023-04-17T06:26:45.926Z,18.60
2023-04-17T06:29:13.874Z,17.77
2023-04-17T06:31:40.861Z,19.50
2023-04-17T06:34:07.707Z,20.53
2023-04-17T06:36:34.460Z,18.10
2023-04-17T06:39:01.216Z,19.03
2023-04-17T06:41:27.916Z,20.03
2023-04-17T06:43:54.720Z,18.80
2023-04-17T06:46:23.018Z,18.83
2023-04-17T06:48:52.169Z,18.40
2023-04-17T06:51:21.021Z,18.57
2023-04-17T06:53:51.024Z,18.90
2023-04-17T06:56:18.212Z,16.97
2023-04-17T06:58:45.013Z,19.97
2023-04-17T07:01:13.215Z,19.80
2023-04-17T07:03:41.135Z,18.00
2023-04-17T07:06:08.591Z,18.27
2023-04-17T07:08:35.497Z,18.40
2023-04-17T07:11:02.880Z,18.17
2023-04-17T07:13:31.596Z,18.10
2023-04-17T07:16:01.198Z,18.13
2023-04-17T07:18:29.594Z,18.83
2023-04-17T07:20:56.763Z,17.67
2023-04-17T07:23:23.757Z,18.07
2023-04-17T07:25:50.739Z,19.33
2023-04-17T07:28:18.200Z,16.40
2023-04-17T07:30:45.478Z,17.13
2023-04-17T07:33:12.282Z,18.57
2023-04-17T07:35:39.169Z,18.90
2023-04-17T07:38:06.061Z,18.37
2023-04-17T07:40:34.582Z,18.07
2023-04-17T07:43:01.370Z,13.57
2023-04-17T07:45:28.614Z,18.40
2023-04-17T07:47:55.745Z,17.50
2023-04-17T07:50:22.716Z,17.10
2023-04-17T07:52:49.454Z,16.27
2023-04-17T07:55:16.759Z,15.87
2023-04-17T07:57:43.580Z,18.10
2023-04-17T08:00:13.794Z,15.70
2023-04-17T08:02:42.007Z,17.37
2023-04-17T08:05:09.902Z,14.87
2023-04-17T08:07:37.721Z,16.37
2023-04-17T08:10:05.347Z,15.20
2023-04-17T08:12:32.028Z,16.40
2023-04-17T08:14:58.827Z,15.20
2023-04-17T08:17:26.106Z,15.03
2023-04-17T08:19:59.147Z,12.50
2023-04-17T08:22:26.101Z,13.53
2023-04-17T08:24:57.807Z,13.00
2023-04-17T08:27:25.605Z,12.10
2023-04-17T08:29:55.565Z,13.37
2023-04-17T08:32:22.375Z,14.50
2023-04-17T08:34:49.153Z,13.03
2023-04-17T08:37:15.902Z,13.30
2023-04-17T08:39:42.695Z,12.30
2023-04-17T08:42:18.542Z,12.43
2023-04-17T08:44:45.973Z,13.20
2023-04-17T08:47:13.333Z,12.30
2023-04-17T08:49:43.651Z,10.37
2023-04-17T08:52:11.352Z,11.90
2023-04-17T08:54:39.557Z,11.63
2023-04-17T08:57:06.831Z,11.73
2023-04-17T08:59:33.855Z,10.40
2023-04-17T09:02:08.013Z,11.50
2023-04-17T09:04:39.487Z,11.30
2023-04-17T09:07:07.760Z,10.90
2023-04-17T09:09:55.090Z,10.70
2023-04-17T09:12:23.894Z,9.93
2023-04-17T09:14:51.052Z,10.47
2023-04-17T09:17:19.466Z,9.67
2023-04-17T09:20:07.696Z,8.67
2023-04-17T09:22:36.539Z,8.47
2023-04-17T09:25:04.651Z,8.93
2023-04-17T09:27:31.885Z,8.60
2023-04-17T09:30:01.404Z,9.20
2023-04-17T09:32:30.182Z,8.53
2023-04-17T09:34:59.264Z,8.57
2023-04-17T09:37:33.836Z,8.73
2023-04-17T09:40:02.129Z,9.57
2023-04-17T09:42:29.081Z,9.20
2023-04-17T09:44:55.825Z,7.13
2023-04-17T09:47:22.835Z,9.47
2023-04-17T09:49:52.799Z,8.57
2023-04-17T09:52:21.485Z,9.23
2023-04-17T09:54:51.196Z,9.27
2023-04-17T09:57:18.796Z,9.37
2023-04-17T09:59:48.763Z,8.80
2023-04-17T10:02:19.951Z,7.87
2023-04-17T10:04:47.711Z,9.73
2023-04-17T10:07:16.539Z,8.67
2023-04-17T10:09:47.023Z,9.37
2023-04-17T10:12:18.679Z,8.50
2023-04-17T10:14:48.404Z,8.77
2023-04-17T10:17:26.219Z,8.10
2023-04-17T10:19:53.144Z,8.20
2023-04-17T10:22:19.915Z,8.90
2023-04-17T10:24:51.961Z,8.90
2023-04-17T10:27:25.018Z,8.40
2023-04-17T10:30:02.692Z,7.00
2023-04-17T10:32:30.385Z,7.87
2023-04-17T10:35:02.262Z,5.80
2023-04-17T10:37:52.079Z,6.40
2023-04-17T10:40:21.481Z,6.37
2023-04-17T10:43:11.167Z,5.60
2023-04-17T10:45:54.280Z,6.73
2023-04-17T10:48:46.721Z,6.37
2023-04-17T10:51:28.942Z,6.50
2023-04-17T10:53:58.162Z,6.17
2023-04-17T10:56:27.903Z,6.80
2023-04-17T10:59:01.865Z,6.53
2023-04-17T11:01:37.589Z,7.53
2023-04-17T11:04:04.926Z,7.80
2023-04-17T11:06:33.212Z,7.27
2023-04-17T11:09:00.838Z,6.43
2023-04-17T11:11:40.470Z,6.77
2023-04-17T11:14:19.235Z,7.27
2023-04-17T11:16:48.880Z,6.80
2023-04-17T11:19:19.564Z,6.90
2023-04-17T11:21:48.909Z,5.80
2023-04-17T11:24:28.415Z,5.90
2023-04-17T11:26:56.641Z,5.43
2023-04-17T11:29:24.495Z,5.90
2023-04-17T11:31:55.757Z,5.20
2023-04-17T11:34:23.196Z,6.93
2023-04-17T11:36:55.127Z,6.03
2023-04-17T11:39:23.815Z,5.77
2023-04-17T11:41:52.031Z,5.80
2023-04-17T11:44:22.486Z,5.60
2023-04-17T11:46:51.404Z,6.00
2023-04-17T11:49:25.995Z,6.57
2023-04-17T11:51:53.469Z,6.53
2023-04-17T11:54:30.994Z,6.17
2023-04-17T11:57:11.155Z,6.77
2023-04-17T11:59:39.626Z,6.27
2023-04-17T12:02:07.985Z,6.53
2023-04-17T12:04:36.410Z,5.90
2023-04-17T12:07:05.009Z,5.57
2023-04-17T12:09:33.141Z,6.23
2023-04-17T12:12:07.601Z,5.30
2023-04-17T12:14:34.948Z,5.43
2023-04-17T12:17:01.818Z,5.13
2023-04-17T12:19:29.546Z,6.40
2023-04-17T12:21:57.382Z,6.20
2023-04-17T12:24:26.582Z,5.20
2023-04-17T12:26:53.498Z,5.57
2023-04-17T12:29:29.449Z,5.00
2023-04-17T12:32:03.925Z,5.50
2023-04-17T12:34:31.022Z,5.93
2023-04-17T12:36:57.863Z,6.50
2023-04-17T12:39:24.671Z,5.83
2023-04-17T12:41:51.434Z,5.90
2023-04-17T12:44:18.193Z,6.57
2023-04-17T12:46:44.988Z,6.37
2023-04-17T12:49:12.012Z,6.97
2023-04-17T12:51:39.015Z,6.73
2023-04-17T12:54:06.015Z,6.80
2023-04-17T12:56:32.885Z,6.83
2023-04-17T12:59:02.689Z,6.03
2023-04-17T13:01:30.104Z,6.17
2023-04-17T13:03:57.280Z,6.33
2023-04-17T13:06:24.346Z,5.13
2023-04-17T13:08:51.165Z,6.40
2023-04-17T13:11:17.976Z,4.87
2023-04-17T13:13:45.022Z,6.07
2023-04-17T13:16:11.943Z,5.57
2023-04-17T13:18:38.884Z,5.40
2023-04-17T13:21:06.538Z,6.20
2023-04-17T13:23:33.409Z,5.47
2023-04-17T13:26:00.298Z,5.40
2023-04-17T13:28:27.044Z,4.37
2023-04-17T13:30:53.987Z,5.10
2023-04-17T13:33:20.855Z,6.60
2023-04-17T13:35:47.966Z,5.40
2023-04-17T13:38:14.702Z,6.00
2023-04-17T13:40:41.413Z,5.27
2023-04-17T13:43:09.116Z,5.33
2023-04-17T13:45:36.059Z,5.73
2023-04-17T13:48:02.933Z,5.60
2023-04-17T13:50:29.778Z,5.30
2023-04-17T13:52:56.521Z,5.60
2023-04-17T13:55:23.737Z,5.67
2023-04-17T13:57:51.374Z,4.83
2023-04-17T14:00:18.901Z,5.67
2023-04-17T14:02:45.970Z,5.30
2023-04-17T14:05:12.928Z,5.33
2023-04-17T14:07:39.800Z,5.80
2023-04-17T14:10:07.669Z,6.60
2023-04-17T14:12:34.413Z,6.97
2023-04-17T14:15:01.102Z,5.77
2023-04-17T14:17:28.350Z,5.80
2023-04-17T14:19:55.051Z,6.40
2023-04-17T14:22:21.889Z,5.23
2023-04-17T14:24:48.664Z,5.07
2023-04-17T14:27:15.538Z,5.10
2023-04-17T14:29:42.319Z,5.57
2023-04-17T14:32:09.236Z,5.53
2023-04-17T14:34:35.993Z,5.17
2023-04-17T14:37:02.758Z,5.53
2023-04-17T14:39:31.360Z,5.53
2023-04-17T14:41:59.755Z,4.63
2023-04-17T14:44:28.675Z,5.50
2023-04-17T14:46:56.938Z,5.67
2023-04-17T14:49:24.218Z,7.00
2023-04-17T14:51:51.090Z,5.60
2023-04-17T14:54:17.837Z,6.13
2023-04-17T14:56:44.697Z,5.90
2023-04-17T14:59:12.061Z,5.90
2023-04-17T15:01:39.213Z,5.20
2023-04-17T15:04:06.700Z,5.83
2023-04-17T15:06:33.740Z,6.17
2023-04-17T15:09:00.551Z,5.67
2023-04-17T15:11:27.415Z,7.03
2023-04-17T15:13:54.692Z,5.93
2023-04-17T15:16:21.541Z,5.30
2023-04-17T15:18:48.472Z,6.17
2023-04-17T15:21:16.227Z,6.07
2023-04-17T15:23:43.213Z,5.70
2023-04-17T15:26:10.051Z,6.07
2023-04-17T15:28:36.978Z,3.90
2023-04-17T15:31:03.967Z,5.20
2023-04-17T15:33:30.952Z,4.77
2023-04-17T15:35:58.985Z,5.00
2023-04-17T15:38:26.633Z,5.10
2023-04-17T15:40:53.783Z,6.10
2023-04-17T15:43:20.956Z,6.07
2023-04-17T15:45:51.697Z,5.10
2023-04-17T15:48:18.638Z,4.37
2023-04-17T15:50:46.201Z,5.70
2023-04-17T15:53:13.342Z,5.80
2023-04-17T15:55:41.373Z,5.30
2023-04-17T15:58:08.508Z,4.80
2023-04-17T16:00:35.230Z,5.50
2023-04-17T16:03:02.294Z,5.20
2023-04-17T16:05:30.189Z,4.63
2023-04-17T16:07:57.273Z,6.13
2023-04-17T16:10:24.273Z,4.97
2023-04-17T16:12:51.111Z,6.20
2023-04-17T16:15:18.449Z,4.93
2023-04-17T16:17:45.879Z,4.57
2023-04-17T16:20:13.124Z,4.73
2023-04-17T16:22:40.454Z,4.70
2023-04-17T16:25:07.629Z,4.27
2023-04-17T16:27:34.394Z,4.87
2023-04-17T16:30:02.348Z,4.73
2023-04-17T16:32:29.172Z,4.13
2023-04-17T16:34:56.160Z,4.77
2023-04-17T16:37:23.076Z,4.70
2023-04-17T16:39:50.889Z,4.83
2023-04-17T16:42:17.989Z,4.63
2023-04-17T16:44:45.931Z,6.27
2023-04-17T16:47:14.241Z,5.30
2023-04-17T16:49:41.809Z,4.90
2023-04-17T16:52:08.550Z,4.30
2023-04-17T16:54:35.351Z,4.37
2023-04-17T16:57:02.150Z,4.27
2023-04-17T16:59:28.900Z,3.70
2023-04-17T17:01:55.822Z,4.03
2023-04-17T17:04:22.668Z,6.00
2023-04-17T17:06:49.723Z,4.00
2023-04-17T17:09:16.489Z,4.20
2023-04-17T17:11:43.284Z,3.83
2023-04-17T17:14:10.076Z,3.83
2023-04-17T17:16:36.967Z,3.83
2023-04-17T17:19:03.949Z,3.70
2023-04-17T17:21:31.143Z,4.30
2023-04-17T17:23:58.073Z,3.87
2023-04-17T17:26:25.223Z,3.70
2023-04-17T17:28:53.307Z,3.40
2023-04-17T17:31:20.617Z,3.80
2023-04-17T17:33:50.043Z,3.23
2023-04-17T17:36:17.287Z,3.37
2023-04-17T17:38:44.622Z,3.13
2023-04-17T17:41:11.604Z,2.90
2023-04-17T17:43:38.370Z,2.93
2023-04-17T17:46:05.421Z,3.20
2023-04-17T17:48:33.806Z,3.30
2023-04-17T17:51:00.584Z,2.90
2023-04-17T17:53:27.384Z,3.13
2023-04-17T17:55:55.608Z,2.90
2023-04-17T17:58:22.704Z,2.70
2023-04-17T18:00:50.564Z,2.60
2023-04-17T18:03:17.886Z,2.70
2023-04-17T18:05:46.557Z,2.80
2023-04-17T18:08:14.220Z,2.60
2023-04-17T18:10:40.994Z,3.70
2023-04-17T18:13:07.925Z,3.10
2023-04-17T18:15:36.238Z,3.23
2023-04-17T18:18:03.323Z,2.63
2023-04-17T18:20:30.246Z,3.13
2023-04-17T18:22:57.608Z,3.23
2023-04-17T18:25:24.570Z,2.80
2023-04-17T18:27:51.582Z,2.30
2023-04-17T18:30:18.501Z,3.13
2023-04-17T18:32:45.320Z,3.40
2023-04-17T18:35:12.270Z,2.47
2023-04-17T18:37:39.705Z,2.23
2023-04-17T18:40:07.895Z,2.40
2023-04-17T18:42:34.669Z,2.60
2023-04-17T18:45:01.622Z,2.67
2023-04-17T18:47:28.722Z,2.20
2023-04-17T18:49:55.740Z,3.13
2023-04-17T18:52:22.728Z,2.40
2023-04-17T18:54:49.587Z,2.60
2023-04-17T18:57:16.366Z,2.47
2023-04-17T18:59:43.432Z,2.50
2023-04-17T19:02:10.437Z,2.73
2023-04-17T19:04:37.468Z,3.10
2023-04-17T19:07:04.644Z,2.87
2023-04-17T19:09:31.611Z,2.53
2023-04-17T19:11:58.720Z,2.50
2023-04-17T19:14:28.629Z,2.90
2023-04-17T19:16:55.814Z,3.00
2023-04-17T19:19:23.910Z,3.20
2023-04-17T19:21:51.013Z,3.83
2023-04-17T19:24:18.013Z,4.00
2023-04-17T19:26:46.473Z,4.37
2023-04-17T19:29:17.151Z,5.20
2023-04-17T19:31:44.665Z,5.37
2023-04-17T19:34:11.970Z,4.30
2023-04-17T19:36:39.356Z,3.80
2023-04-17T19:39:06.889Z,4.33
2023-04-17T19:41:33.974Z,4.10
2023-04-17T19:44:02.558Z,4.30
2023-04-17T19:46:29.815Z,4.33
2023-04-17T19:48:56.813Z,4.90
2023-04-17T19:51:23.784Z,4.80
2023-04-17T19:53:50.918Z,5.03
2023-04-17T19:56:17.934Z,4.90
2023-04-17T19:58:45.045Z,5.03
2023-04-17T20:01:11.973Z,4.73
2023-04-17T20:03:39.517Z,5.00
2023-04-17T20:06:07.167Z,4.60
2023-04-17T20:08:35.474Z,5.93
2023-04-17T20:11:04.783Z,5.53
2023-04-17T20:13:31.673Z,6.00
2023-04-17T20:15:58.697Z,5.53
2023-04-17T20:18:25.611Z,6.20
2023-04-17T20:20:52.404Z,5.90
2023-04-17T20:23:19.288Z,6.47
2023-04-17T20:25:46.480Z,7.17
2023-04-17T20:28:13.255Z,6.90
2023-04-17T20:30:40.264Z,7.53
2023-04-17T20:33:07.259Z,7.80
2023-04-17T20:35:34.138Z,8.27
2023-04-17T20:38:01.730Z,8.77
2023-04-17T20:40:28.577Z,9.23
2023-04-17T20:42:55.661Z,10.00
2023-04-17T20:45:22.453Z,9.90
2023-04-17T20:50:20.714Z,11.43
2023-04-17T20:52:50.611Z,11.50
2023-04-17T20:55:21.295Z,11.43
2023-04-17T20:57:48.317Z,11.87
2023-04-17T21:00:18.491Z,10.53
2023-04-17T21:02:48.320Z,10.00
2023-04-17T21:05:26.929Z,8.63
2023-04-17T21:07:57.863Z,8.37
2023-04-17T21:10:24.699Z,8.60
2023-04-17T21:12:54.194Z,9.03
2023-04-17T21:15:26.485Z,12.90
2023-04-17T21:17:53.223Z,9.73
2023-04-17T21:20:20.099Z,10.43
2023-04-17T21:22:46.938Z,10.40
2023-04-17T21:25:13.790Z,8.50
2023-04-17T21:27:41.577Z,10.87
2023-04-17T21:30:10.616Z,10.37
2023-04-17T21:32:38.968Z,11.80
2023-04-17T21:35:06.319Z,10.63
2023-04-17T21:37:33.070Z,11.63
2023-04-17T21:39:59.915Z,11.83
2023-04-17T21:42:26.759Z,11.87
2023-04-17T21:44:53.585Z,12.07
2023-04-17T21:47:20.485Z,11.57
2023-04-17T21:49:50.188Z,11.70
2023-04-17T21:52:17.216Z,11.57
2023-04-17T21:54:44.072Z,13.60
2023-04-17T21:57:10.800Z,13.37
2023-04-17T21:59:37.664Z,14.97
2023-04-17T22:02:04.469Z,12.53
2023-04-17T22:04:31.339Z,14.20
2023-04-17T22:06:58.105Z,14.67
2023-04-17T22:09:25.274Z,14.73
2023-04-17T22:11:53.045Z,14.80
2023-04-17T22:14:19.897Z,15.60
2023-04-17T22:16:46.689Z,13.77
2023-04-17T22:19:13.543Z,15.27
2023-04-17T22:21:40.409Z,15.33
2023-04-17T22:24:07.702Z,15.37
2023-04-17T22:26:40.022Z,14.27
2023-04-17T22:29:18.539Z,14.43
2023-04-17T22:31:48.215Z,16.90
2023-04-17T22:34:18.738Z,15.80
2023-04-17T22:36:48.319Z,15.97
2023-04-17T22:39:28.460Z,16.00
2023-04-17T22:41:55.285Z,15.43
2023-04-17T22:44:24.158Z,17.10
2023-04-17T22:46:50.896Z,16.63
2023-04-17T22:49:19.670Z,15.73
2023-04-17T22:51:50.812Z,15.97
2023-04-17T22:54:24.391Z,16.70
2023-04-17T22:56:54.095Z,15.80
2023-04-17T22:59:25.605Z,16.70
2023-04-17T23:01:53.603Z,14.90
2023-04-17T23:04:24.113Z,16.00
2023-04-17T23:06:52.855Z,17.13
2023-04-17T23:09:22.561Z,15.90
2023-04-17T23:11:53.957Z,17.00
2023-04-17T23:14:23.402Z,16.87
2023-04-17T23:16:52.677Z,17.80
2023-04-17T23:19:24.948Z,18.77
2023-04-17T23:21:51.799Z,17.97
2023-04-17T23:24:24.604Z,17.37
2023-04-17T23:26:56.363Z,16.43
2023-04-17T23:29:26.095Z,15.90
2023-04-17T23:31:59.689Z,17.20
2023-04-17T23:34:29.375Z,17.70
2023-04-17T23:36:56.082Z,18.00
2023-04-17T23:39:29.084Z,18.40
2023-04-17T23:42:04.001Z,18.40
2023-04-17T23:44:30.760Z,17.67
2023-04-17T23:46:57.605Z,17.67
2023-04-17T23:49:24.403Z,18.00
2023-04-17T23:51:51.164Z,16.40
2023-04-17T23:54:17.925Z,17.63
2023-04-17T23:56:45.203Z,17.20
2023-04-17T23:59:12.029Z,17.90
